Capon Springs, West Virginia
Current Conditions -  °F | °C
As of 8:55 AM on Thursday 23 Oct 2014 (Local Time) from KOKV Reporting Station
Broken Clouds Broken Clouds  
Wind Chill: 54°   Ceiling: 8000
Heat Index: 54°   Visibility: 10mi
Dew Point: 37°   Wind: 20mph
Humidity: 54%   Direction: 310°NW
Pressure: 29.97"   Gusts: 28mph
Location:  39.14°N, 78.48°W
Report Text: KOKV 231255Z AUTO 31017G24KT 10SM BKN080 12/03 A2997 RMK AO2
Loading
Personal Weather Stations






























Interactive Weather Map
Tropical Storm Tracking
New forecast layout! Learn more

10-Day Weather Forecast

Advertisements
Track Severe Weather on mobile